Hilltop, West Virginia
Current Conditions -  °F | °C
As of 10:51 PM on Saturday 24 Jan 2015 (Local Time) from KBKW Reporting Station
Overcast Overcast  
Wind Chill: 21°   Ceiling: 1200
Heat Index: 30°   Visibility: 10mi
Dew Point: 26°   Wind: 10mph
Humidity: 85%   Direction: 290°WNW
Pressure: 29.78"   Gusts: NA
Location:  37.94°N, 81.15°W
Report Text: KBKW 250351Z AUTO 29009KT 10SM BKN012 OVC019 M01/M03 A2978 RMK AO2 SLP113 T10111033
Loading
Personal Weather Stations






























Interactive Weather Map New forecast layout! Learn more

10-Day Weather Forecast

Advertisements
Track Severe Weather on mobile